sensor_id;sensor_type;location;lat;lon;timestamp;P1;durP1;ratioP1;P2;durP2;ratioP2
3995;SDS011;2012;49.794;9.722;2023-05-07T00:01:39;3.90;;;2.00;;
3995;SDS011;2012;49.794;9.722;2023-05-07T00:04:06;3.20;;;1.77;;
3995;SDS011;2012;49.794;9.722;2023-05-07T00:06:33;3.83;;;1.90;;
3995;SDS011;2012;49.794;9.722;2023-05-07T00:09:01;4.03;;;2.20;;
3995;SDS011;2012;49.794;9.722;2023-05-07T00:11:28;2.00;;;1.70;;
3995;SDS011;2012;49.794;9.722;2023-05-07T00:13:55;3.33;;;1.93;;
3995;SDS011;2012;49.794;9.722;2023-05-07T00:16:22;2.53;;;1.93;;
3995;SDS011;2012;49.794;9.722;2023-05-07T00:18:49;8.00;;;2.00;;
3995;SDS011;2012;49.794;9.722;2023-05-07T00:21:16;7.17;;;2.00;;
3995;SDS011;2012;49.794;9.722;2023-05-07T00:23:43;2.60;;;2.40;;
3995;SDS011;2012;49.794;9.722;2023-05-07T00:26:10;2.03;;;1.83;;
3995;SDS011;2012;49.794;9.722;2023-05-07T00:28:38;2.60;;;1.67;;
3995;SDS011;2012;49.794;9.722;2023-05-07T00:31:05;5.23;;;1.83;;
3995;SDS011;2012;49.794;9.722;2023-05-07T00:33:32;1.73;;;1.63;;
3995;SDS011;2012;49.794;9.722;2023-05-07T00:35:59;2.13;;;1.90;;
3995;SDS011;2012;49.794;9.722;2023-05-07T00:38:28;1.83;;;1.43;;
3995;SDS011;2012;49.794;9.722;2023-05-07T00:40:55;3.13;;;1.80;;
3995;SDS011;2012;49.794;9.722;2023-05-07T00:43:21;2.23;;;2.00;;
3995;SDS011;2012;49.794;9.722;2023-05-07T00:45:48;3.10;;;1.77;;
3995;SDS011;2012;49.794;9.722;2023-05-07T00:48:16;9.10;;;2.83;;
3995;SDS011;2012;49.794;9.722;2023-05-07T00:50:43;4.27;;;2.40;;
3995;SDS011;2012;49.794;9.722;2023-05-07T00:53:11;3.87;;;1.90;;
3995;SDS011;2012;49.794;9.722;2023-05-07T00:55:39;3.67;;;1.80;;
3995;SDS011;2012;49.794;9.722;2023-05-07T00:58:06;2.60;;;2.10;;
3995;SDS011;2012;49.794;9.722;2023-05-07T01:00:33;2.10;;;1.90;;
3995;SDS011;2012;49.794;9.722;2023-05-07T01:03:00;3.27;;;2.07;;
3995;SDS011;2012;49.794;9.722;2023-05-07T01:05:28;3.47;;;2.00;;
3995;SDS011;2012;49.794;9.722;2023-05-07T01:07:57;2.47;;;2.27;;
3995;SDS011;2012;49.794;9.722;2023-05-07T01:10:25;2.70;;;1.90;;
3995;SDS011;2012;49.794;9.722;2023-05-07T01:12:52;2.17;;;1.93;;
3995;SDS011;2012;49.794;9.722;2023-05-07T01:15:20;3.13;;;1.70;;
3995;SDS011;2012;49.794;9.722;2023-05-07T01:17:47;5.10;;;1.70;;
3995;SDS011;2012;49.794;9.722;2023-05-07T01:20:20;2.70;;;1.30;;
3995;SDS011;2012;49.794;9.722;2023-05-07T01:22:50;2.87;;;1.83;;
3995;SDS011;2012;49.794;9.722;2023-05-07T01:25:17;1.73;;;1.60;;
3995;SDS011;2012;49.794;9.722;2023-05-07T01:27:48;3.37;;;1.87;;
3995;SDS011;2012;49.794;9.722;2023-05-07T01:30:16;1.83;;;1.53;;
3995;SDS011;2012;49.794;9.722;2023-05-07T01:33:04;6.30;;;2.00;;
3995;SDS011;2012;49.794;9.722;2023-05-07T01:35:38;1.80;;;1.70;;
3995;SDS011;2012;49.794;9.722;2023-05-07T01:38:08;4.63;;;1.90;;
3995;SDS011;2012;49.794;9.722;2023-05-07T01:40:35;2.70;;;1.50;;
3995;SDS011;2012;49.794;9.722;2023-05-07T01:43:02;1.70;;;1.60;;
3995;SDS011;2012;49.794;9.722;2023-05-07T01:45:31;1.50;;;1.40;;
3995;SDS011;2012;49.794;9.722;2023-05-07T01:48:00;1.50;;;1.40;;
3995;SDS011;2012;49.794;9.722;2023-05-07T01:50:28;1.70;;;1.60;;
3995;SDS011;2012;49.794;9.722;2023-05-07T01:52:57;1.97;;;1.77;;
3995;SDS011;2012;49.794;9.722;2023-05-07T01:55:24;3.30;;;1.70;;
3995;SDS011;2012;49.794;9.722;2023-05-07T01:57:51;3.30;;;1.70;;
3995;SDS011;2012;49.794;9.722;2023-05-07T02:00:18;6.20;;;2.27;;
3995;SDS011;2012;49.794;9.722;2023-05-07T02:02:45;5.07;;;2.17;;
3995;SDS011;2012;49.794;9.722;2023-05-07T02:05:44;2.63;;;2.37;;
3995;SDS011;2012;49.794;9.722;2023-05-07T02:08:25;8.50;;;1.90;;
3995;SDS011;2012;49.794;9.722;2023-05-07T02:10:52;3.60;;;1.70;;
3995;SDS011;2012;49.794;9.722;2023-05-07T02:13:20;3.13;;;2.23;;
3995;SDS011;2012;49.794;9.722;2023-05-07T02:15:48;2.37;;;1.97;;
3995;SDS011;2012;49.794;9.722;2023-05-07T02:18:17;2.47;;;2.27;;
3995;SDS011;2012;49.794;9.722;2023-05-07T02:20:44;7.80;;;1.90;;
3995;SDS011;2012;49.794;9.722;2023-05-07T02:23:11;3.37;;;1.80;;
3995;SDS011;2012;49.794;9.722;2023-05-07T02:25:38;3.60;;;2.10;;
3995;SDS011;2012;49.794;9.722;2023-05-07T02:28:05;3.30;;;1.83;;
3995;SDS011;2012;49.794;9.722;2023-05-07T02:31:04;2.40;;;2.20;;
3995;SDS011;2012;49.794;9.722;2023-05-07T02:33:32;3.37;;;2.27;;
3995;SDS011;2012;49.794;9.722;2023-05-07T02:36:06;2.23;;;1.97;;
3995;SDS011;2012;49.794;9.722;2023-05-07T02:38:47;3.03;;;1.67;;
3995;SDS011;2012;49.794;9.722;2023-05-07T02:41:14;1.80;;;1.70;;
3995;SDS011;2012;49.794;9.722;2023-05-07T02:43:41;2.10;;;1.90;;
3995;SDS011;2012;49.794;9.722;2023-05-07T02:46:09;7.70;;;2.30;;
3995;SDS011;2012;49.794;9.722;2023-05-07T02:48:40;2.43;;;1.57;;
3995;SDS011;2012;49.794;9.722;2023-05-07T02:51:07;2.63;;;1.83;;
3995;SDS011;2012;49.794;9.722;2023-05-07T02:53:36;6.23;;;1.90;;
3995;SDS011;2012;49.794;9.722;2023-05-07T02:56:03;4.70;;;1.70;;
3995;SDS011;2012;49.794;9.722;2023-05-07T02:58:30;14.93;;;7.10;;
3995;SDS011;2012;49.794;9.722;2023-05-07T03:00:58;6.77;;;3.20;;
3995;SDS011;2012;49.794;9.722;2023-05-07T03:03:33;5.53;;;2.13;;
3995;SDS011;2012;49.794;9.722;2023-05-07T03:06:01;3.60;;;2.30;;
3995;SDS011;2012;49.794;9.722;2023-05-07T03:08:28;6.80;;;1.87;;
3995;SDS011;2012;49.794;9.722;2023-05-07T03:10:54;3.63;;;2.00;;
3995;SDS011;2012;49.794;9.722;2023-05-07T03:13:21;3.40;;;2.40;;
3995;SDS011;2012;49.794;9.722;2023-05-07T03:15:48;1.90;;;1.80;;
3995;SDS011;2012;49.794;9.722;2023-05-07T03:18:15;4.73;;;2.30;;
3995;SDS011;2012;49.794;9.722;2023-05-07T03:20:42;8.67;;;2.63;;
3995;SDS011;2012;49.794;9.722;2023-05-07T03:23:09;3.47;;;1.80;;
3995;SDS011;2012;49.794;9.722;2023-05-07T03:25:36;2.53;;;1.93;;
3995;SDS011;2012;49.794;9.722;2023-05-07T03:28:03;1.60;;;1.50;;
3995;SDS011;2012;49.794;9.722;2023-05-07T03:30:38;1.80;;;1.70;;
3995;SDS011;2012;49.794;9.722;2023-05-07T03:33:05;1.83;;;1.70;;
3995;SDS011;2012;49.794;9.722;2023-05-07T03:35:33;1.70;;;1.60;;
3995;SDS011;2012;49.794;9.722;2023-05-07T03:38:00;2.50;;;2.07;;
3995;SDS011;2012;49.794;9.722;2023-05-07T03:40:30;11.90;;;2.30;;
3995;SDS011;2012;49.794;9.722;2023-05-07T03:42:57;4.00;;;2.00;;
3995;SDS011;2012;49.794;9.722;2023-05-07T03:45:25;5.43;;;1.73;;
3995;SDS011;2012;49.794;9.722;2023-05-07T03:48:09;2.30;;;2.00;;
3995;SDS011;2012;49.794;9.722;2023-05-07T03:50:37;4.73;;;2.10;;
3995;SDS011;2012;49.794;9.722;2023-05-07T03:53:05;4.23;;;2.10;;
3995;SDS011;2012;49.794;9.722;2023-05-07T03:55:37;2.27;;;2.07;;
3995;SDS011;2012;49.794;9.722;2023-05-07T03:58:03;2.87;;;1.97;;
3995;SDS011;2012;49.794;9.722;2023-05-07T04:00:31;2.37;;;2.03;;
3995;SDS011;2012;49.794;9.722;2023-05-07T04:03:00;3.73;;;2.70;;
3995;SDS011;2012;49.794;9.722;2023-05-07T04:05:30;4.10;;;1.93;;
3995;SDS011;2012;49.794;9.722;2023-05-07T04:08:00;3.73;;;1.93;;
3995;SDS011;2012;49.794;9.722;2023-05-07T04:10:35;10.33;;;2.00;;
3995;SDS011;2012;49.794;9.722;2023-05-07T04:13:06;4.67;;;2.17;;
3995;SDS011;2012;49.794;9.722;2023-05-07T04:15:35;1.93;;;1.83;;
3995;SDS011;2012;49.794;9.722;2023-05-07T04:18:04;2.07;;;1.80;;
3995;SDS011;2012;49.794;9.722;2023-05-07T04:20:34;11.90;;;2.70;;
3995;SDS011;2012;49.794;9.722;2023-05-07T04:23:05;3.23;;;2.97;;
3995;SDS011;2012;49.794;9.722;2023-05-07T04:25:33;5.50;;;3.37;;
3995;SDS011;2012;49.794;9.722;2023-05-07T04:28:08;4.40;;;3.80;;
3995;SDS011;2012;49.794;9.722;2023-05-07T04:30:38;2.60;;;2.40;;
3995;SDS011;2012;49.794;9.722;2023-05-07T04:33:06;3.37;;;2.73;;
3995;SDS011;2012;49.794;9.722;2023-05-07T04:35:35;4.70;;;2.53;;
3995;SDS011;2012;49.794;9.722;2023-05-07T04:38:03;4.60;;;2.13;;
3995;SDS011;2012;49.794;9.722;2023-05-07T04:40:30;2.40;;;2.20;;
3995;SDS011;2012;49.794;9.722;2023-05-07T04:42:58;9.17;;;4.00;;
3995;SDS011;2012;49.794;9.722;2023-05-07T04:45:27;8.80;;;4.43;;
3995;SDS011;2012;49.794;9.722;2023-05-07T04:47:54;9.07;;;2.90;;
3995;SDS011;2012;49.794;9.722;2023-05-07T04:50:21;4.60;;;2.73;;
3995;SDS011;2012;49.794;9.722;2023-05-07T04:52:54;5.10;;;2.77;;
3995;SDS011;2012;49.794;9.722;2023-05-07T04:55:22;2.73;;;2.53;;
3995;SDS011;2012;49.794;9.722;2023-05-07T04:57:49;4.30;;;2.20;;
3995;SDS011;2012;49.794;9.722;2023-05-07T05:00:16;3.20;;;2.50;;
3995;SDS011;2012;49.794;9.722;2023-05-07T05:02:47;2.57;;;2.10;;
3995;SDS011;2012;49.794;9.722;2023-05-07T05:05:18;3.30;;;2.33;;
3995;SDS011;2012;49.794;9.722;2023-05-07T05:07:48;3.17;;;2.57;;
3995;SDS011;2012;49.794;9.722;2023-05-07T05:10:14;4.43;;;2.43;;
3995;SDS011;2012;49.794;9.722;2023-05-07T05:12:43;3.17;;;2.63;;
3995;SDS011;2012;49.794;9.722;2023-05-07T05:15:13;3.20;;;2.73;;
3995;SDS011;2012;49.794;9.722;2023-05-07T05:17:41;5.33;;;3.50;;
3995;SDS011;2012;49.794;9.722;2023-05-07T05:20:08;6.17;;;2.83;;
3995;SDS011;2012;49.794;9.722;2023-05-07T05:22:40;3.73;;;3.20;;
3995;SDS011;2012;49.794;9.722;2023-05-07T05:25:09;3.40;;;3.10;;
3995;SDS011;2012;49.794;9.722;2023-05-07T05:27:36;3.30;;;2.40;;
3995;SDS011;2012;49.794;9.722;2023-05-07T05:30:04;5.07;;;2.97;;
3995;SDS011;2012;49.794;9.722;2023-05-07T05:32:33;14.27;;;3.10;;
3995;SDS011;2012;49.794;9.722;2023-05-07T05:35:00;3.90;;;2.47;;
3995;SDS011;2012;49.794;9.722;2023-05-07T05:37:28;3.10;;;2.77;;
3995;SDS011;2012;49.794;9.722;2023-05-07T05:39:58;2.90;;;2.70;;
3995;SDS011;2012;49.794;9.722;2023-05-07T05:42:27;2.80;;;2.60;;
3995;SDS011;2012;49.794;9.722;2023-05-07T05:44:54;4.00;;;3.10;;
3995;SDS011;2012;49.794;9.722;2023-05-07T05:47:22;4.80;;;3.23;;
3995;SDS011;2012;49.794;9.722;2023-05-07T05:49:53;6.63;;;3.80;;
3995;SDS011;2012;49.794;9.722;2023-05-07T05:52:19;4.03;;;3.53;;
3995;SDS011;2012;49.794;9.722;2023-05-07T05:54:49;5.40;;;3.07;;
3995;SDS011;2012;49.794;9.722;2023-05-07T05:57:17;5.47;;;3.90;;
3995;SDS011;2012;49.794;9.722;2023-05-07T05:59:45;6.70;;;3.70;;
3995;SDS011;2012;49.794;9.722;2023-05-07T06:02:13;5.37;;;3.90;;
3995;SDS011;2012;49.794;9.722;2023-05-07T06:04:41;4.30;;;3.83;;
3995;SDS011;2012;49.794;9.722;2023-05-07T06:07:11;4.50;;;4.10;;
3995;SDS011;2012;49.794;9.722;2023-05-07T06:09:38;5.97;;;3.90;;
3995;SDS011;2012;49.794;9.722;2023-05-07T06:12:05;5.67;;;3.90;;
3995;SDS011;2012;49.794;9.722;2023-05-07T06:14:32;9.73;;;4.80;;
3995;SDS011;2012;49.794;9.722;2023-05-07T06:16:59;6.50;;;4.47;;
3995;SDS011;2012;49.794;9.722;2023-05-07T06:19:26;6.17;;;5.10;;
3995;SDS011;2012;49.794;9.722;2023-05-07T06:21:56;7.17;;;4.97;;
3995;SDS011;2012;49.794;9.722;2023-05-07T06:24:27;5.70;;;5.20;;
3995;SDS011;2012;49.794;9.722;2023-05-07T06:26:54;5.70;;;5.20;;
3995;SDS011;2012;49.794;9.722;2023-05-07T06:29:21;7.50;;;6.20;;
3995;SDS011;2012;49.794;9.722;2023-05-07T06:31:52;6.90;;;6.13;;
3995;SDS011;2012;49.794;9.722;2023-05-07T06:34:20;14.20;;;6.57;;
3995;SDS011;2012;49.794;9.722;2023-05-07T06:36:47;6.73;;;6.03;;
3995;SDS011;2012;49.794;9.722;2023-05-07T06:39:23;6.07;;;5.47;;
3995;SDS011;2012;49.794;9.722;2023-05-07T06:41:51;6.87;;;6.17;;
3995;SDS011;2012;49.794;9.722;2023-05-07T06:44:25;6.83;;;6.23;;
3995;SDS011;2012;49.794;9.722;2023-05-07T06:47:05;5.97;;;5.37;;
3995;SDS011;2012;49.794;9.722;2023-05-07T06:49:32;9.20;;;6.63;;
3995;SDS011;2012;49.794;9.722;2023-05-07T06:51:59;6.37;;;5.77;;
3995;SDS011;2012;49.794;9.722;2023-05-07T06:54:28;7.37;;;5.90;;
3995;SDS011;2012;49.794;9.722;2023-05-07T06:56:55;11.77;;;6.63;;
3995;SDS011;2012;49.794;9.722;2023-05-07T06:59:24;7.10;;;5.43;;
3995;SDS011;2012;49.794;9.722;2023-05-07T07:01:52;7.57;;;6.77;;
3995;SDS011;2012;49.794;9.722;2023-05-07T07:04:19;6.70;;;6.10;;
3995;SDS011;2012;49.794;9.722;2023-05-07T07:06:55;7.90;;;6.40;;
3995;SDS011;2012;49.794;9.722;2023-05-07T07:09:23;7.10;;;6.13;;
3995;SDS011;2012;49.794;9.722;2023-05-07T07:11:51;6.60;;;5.97;;
3995;SDS011;2012;49.794;9.722;2023-05-07T07:14:18;7.47;;;5.83;;
3995;SDS011;2012;49.794;9.722;2023-05-07T07:16:49;7.03;;;5.23;;
3995;SDS011;2012;49.794;9.722;2023-05-07T07:19:18;6.07;;;5.47;;
3995;SDS011;2012;49.794;9.722;2023-05-07T07:21:49;8.40;;;6.00;;
3995;SDS011;2012;49.794;9.722;2023-05-07T07:24:16;9.33;;;6.37;;
3995;SDS011;2012;49.794;9.722;2023-05-07T07:26:50;7.17;;;5.63;;
3995;SDS011;2012;49.794;9.722;2023-05-07T07:29:19;7.37;;;6.37;;
3995;SDS011;2012;49.794;9.722;2023-05-07T07:31:47;10.50;;;6.50;;
3995;SDS011;2012;49.794;9.722;2023-05-07T07:34:17;5.63;;;5.13;;
3995;SDS011;2012;49.794;9.722;2023-05-07T07:36:43;7.77;;;5.30;;
3995;SDS011;2012;49.794;9.722;2023-05-07T07:39:15;7.87;;;6.07;;
3995;SDS011;2012;49.794;9.722;2023-05-07T07:41:43;10.20;;;6.07;;
3995;SDS011;2012;49.794;9.722;2023-05-07T07:44:12;6.70;;;6.10;;
3995;SDS011;2012;49.794;9.722;2023-05-07T07:46:44;7.00;;;6.40;;
3995;SDS011;2012;49.794;9.722;2023-05-07T07:49:11;14.83;;;6.30;;
3995;SDS011;2012;49.794;9.722;2023-05-07T07:51:38;16.33;;;6.63;;
3995;SDS011;2012;49.794;9.722;2023-05-07T07:54:05;8.37;;;6.60;;
3995;SDS011;2012;49.794;9.722;2023-05-07T07:56:34;7.60;;;6.90;;
3995;SDS011;2012;49.794;9.722;2023-05-07T07:59:02;7.00;;;5.90;;
3995;SDS011;2012;49.794;9.722;2023-05-07T08:01:30;7.23;;;6.50;;
3995;SDS011;2012;49.794;9.722;2023-05-07T08:03:58;9.97;;;7.20;;
3995;SDS011;2012;49.794;9.722;2023-05-07T08:06:27;9.67;;;6.60;;
3995;SDS011;2012;49.794;9.722;2023-05-07T08:08:54;10.10;;;7.00;;
3995;SDS011;2012;49.794;9.722;2023-05-07T08:11:22;6.27;;;5.67;;
3995;SDS011;2012;49.794;9.722;2023-05-07T08:13:50;6.87;;;5.83;;
3995;SDS011;2012;49.794;9.722;2023-05-07T08:16:17;8.10;;;6.97;;
3995;SDS011;2012;49.794;9.722;2023-05-07T08:18:46;6.53;;;5.93;;
3995;SDS011;2012;49.794;9.722;2023-05-07T08:21:13;8.77;;;6.67;;
3995;SDS011;2012;49.794;9.722;2023-05-07T08:23:40;9.33;;;6.43;;
3995;SDS011;2012;49.794;9.722;2023-05-07T08:26:07;13.73;;;6.87;;
3995;SDS011;2012;49.794;9.722;2023-05-07T08:28:35;7.00;;;6.30;;
3995;SDS011;2012;49.794;9.722;2023-05-07T08:31:02;8.43;;;6.53;;
3995;SDS011;2012;49.794;9.722;2023-05-07T08:33:34;8.43;;;6.53;;
3995;SDS011;2012;49.794;9.722;2023-05-07T08:36:00;6.90;;;6.30;;
3995;SDS011;2012;49.794;9.722;2023-05-07T08:38:28;7.87;;;6.40;;
3995;SDS011;2012;49.794;9.722;2023-05-07T08:40:55;7.67;;;6.30;;
3995;SDS011;2012;49.794;9.722;2023-05-07T08:43:23;10.03;;;7.20;;
3995;SDS011;2012;49.794;9.722;2023-05-07T08:45:53;11.17;;;7.13;;
3995;SDS011;2012;49.794;9.722;2023-05-07T08:48:25;8.83;;;7.40;;
3995;SDS011;2012;49.794;9.722;2023-05-07T08:51:03;10.57;;;8.07;;
3995;SDS011;2012;49.794;9.722;2023-05-07T08:53:31;7.47;;;6.77;;
3995;SDS011;2012;49.794;9.722;2023-05-07T08:55:59;7.90;;;6.70;;
3995;SDS011;2012;49.794;9.722;2023-05-07T08:58:27;10.17;;;7.17;;
3995;SDS011;2012;49.794;9.722;2023-05-07T09:00:55;9.00;;;7.20;;
3995;SDS011;2012;49.794;9.722;2023-05-07T09:03:23;9.00;;;6.53;;
3995;SDS011;2012;49.794;9.722;2023-05-07T09:05:53;10.43;;;7.10;;
3995;SDS011;2012;49.794;9.722;2023-05-07T09:08:24;7.77;;;7.07;;
3995;SDS011;2012;49.794;9.722;2023-05-07T09:10:54;9.30;;;7.77;;
3995;SDS011;2012;49.794;9.722;2023-05-07T09:13:22;7.47;;;6.43;;
3995;SDS011;2012;49.794;9.722;2023-05-07T09:15:49;8.20;;;6.80;;
3995;SDS011;2012;49.794;9.722;2023-05-07T09:18:17;7.50;;;6.40;;
3995;SDS011;2012;49.794;9.722;2023-05-07T09:20:46;7.93;;;7.23;;
3995;SDS011;2012;49.794;9.722;2023-05-07T09:23:14;10.47;;;6.93;;
3995;SDS011;2012;49.794;9.722;2023-05-07T09:25:42;10.13;;;6.23;;
3995;SDS011;2012;49.794;9.722;2023-05-07T09:28:17;7.70;;;6.90;;
3995;SDS011;2012;49.794;9.722;2023-05-07T09:30:44;7.67;;;6.97;;
3995;SDS011;2012;49.794;9.722;2023-05-07T09:33:13;7.30;;;6.60;;
3995;SDS011;2012;49.794;9.722;2023-05-07T09:35:44;15.43;;;7.53;;
3995;SDS011;2012;49.794;9.722;2023-05-07T09:38:15;13.53;;;6.90;;
3995;SDS011;2012;49.794;9.722;2023-05-07T09:40:47;9.30;;;6.80;;
3995;SDS011;2012;49.794;9.722;2023-05-07T09:43:53;6.73;;;6.03;;
3995;SDS011;2012;49.794;9.722;2023-05-07T09:46:32;8.70;;;6.87;;
3995;SDS011;2012;49.794;9.722;2023-05-07T09:49:07;7.13;;;6.40;;
3995;SDS011;2012;49.794;9.722;2023-05-07T09:51:48;9.60;;;6.73;;
3995;SDS011;2012;49.794;9.722;2023-05-07T09:54:18;10.67;;;5.53;;
3995;SDS011;2012;49.794;9.722;2023-05-07T09:56:48;8.17;;;6.17;;
3995;SDS011;2012;49.794;9.722;2023-05-07T09:59:17;9.37;;;7.30;;
3995;SDS011;2012;49.794;9.722;2023-05-07T10:01:46;7.30;;;5.73;;
3995;SDS011;2012;49.794;9.722;2023-05-07T10:04:16;7.30;;;6.40;;
3995;SDS011;2012;49.794;9.722;2023-05-07T10:06:44;7.50;;;6.70;;
3995;SDS011;2012;49.794;9.722;2023-05-07T10:09:13;7.50;;;6.20;;
3995;SDS011;2012;49.794;9.722;2023-05-07T10:11:41;8.77;;;7.10;;
3995;SDS011;2012;49.794;9.722;2023-05-07T10:14:10;7.87;;;6.33;;
3995;SDS011;2012;49.794;9.722;2023-05-07T10:16:36;5.40;;;4.93;;
3995;SDS011;2012;49.794;9.722;2023-05-07T10:19:09;9.27;;;6.00;;
3995;SDS011;2012;49.794;9.722;2023-05-07T10:21:38;6.27;;;5.73;;
3995;SDS011;2012;49.794;9.722;2023-05-07T10:24:09;9.57;;;5.80;;
3995;SDS011;2012;49.794;9.722;2023-05-07T10:26:44;6.40;;;5.30;;
3995;SDS011;2012;49.794;9.722;2023-05-07T10:29:15;10.70;;;6.07;;
3995;SDS011;2012;49.794;9.722;2023-05-07T10:32:14;8.90;;;5.80;;
3995;SDS011;2012;49.794;9.722;2023-05-07T10:35:24;10.50;;;5.90;;
3995;SDS011;2012;49.794;9.722;2023-05-07T10:37:57;6.23;;;5.40;;
3995;SDS011;2012;49.794;9.722;2023-05-07T10:40:26;6.60;;;5.53;;
3995;SDS011;2012;49.794;9.722;2023-05-07T10:42:55;5.50;;;5.07;;
3995;SDS011;2012;49.794;9.722;2023-05-07T10:45:30;6.10;;;4.83;;
3995;SDS011;2012;49.794;9.722;2023-05-07T10:48:10;9.10;;;5.43;;
3995;SDS011;2012;49.794;9.722;2023-05-07T10:51:17;5.57;;;5.07;;
3995;SDS011;2012;49.794;9.722;2023-05-07T10:53:48;5.70;;;4.10;;
3995;SDS011;2012;49.794;9.722;2023-05-07T10:59:16;6.03;;;5.47;;
3995;SDS011;2012;49.794;9.722;2023-05-07T11:01:54;5.00;;;4.43;;
3995;SDS011;2012;49.794;9.722;2023-05-07T11:08:12;5.33;;;4.40;;
3995;SDS011;2012;49.794;9.722;2023-05-07T11:10:55;4.80;;;4.40;;
3995;SDS011;2012;49.794;9.722;2023-05-07T11:13:46;4.90;;;4.40;;
3995;SDS011;2012;49.794;9.722;2023-05-07T11:16:36;3.73;;;3.40;;
3995;SDS011;2012;49.794;9.722;2023-05-07T11:19:14;5.80;;;4.40;;
3995;SDS011;2012;49.794;9.722;2023-05-07T11:21:46;7.33;;;4.03;;
3995;SDS011;2012;49.794;9.722;2023-05-07T11:24:28;4.47;;;3.93;;
3995;SDS011;2012;49.794;9.722;2023-05-07T11:27:04;4.50;;;4.00;;
3995;SDS011;2012;49.794;9.722;2023-05-07T11:29:31;8.30;;;3.57;;
3995;SDS011;2012;49.794;9.722;2023-05-07T11:32:04;4.60;;;4.10;;
3995;SDS011;2012;49.794;9.722;2023-05-07T11:34:45;3.87;;;3.57;;
3995;SDS011;2012;49.794;9.722;2023-05-07T11:37:16;5.13;;;3.80;;
3995;SDS011;2012;49.794;9.722;2023-05-07T11:40:01;8.43;;;3.63;;
3995;SDS011;2012;49.794;9.722;2023-05-07T11:42:40;5.50;;;3.50;;
3995;SDS011;2012;49.794;9.722;2023-05-07T11:45:10;3.60;;;3.20;;
3995;SDS011;2012;49.794;9.722;2023-05-07T11:47:37;4.97;;;3.50;;
3995;SDS011;2012;49.794;9.722;2023-05-07T11:50:07;4.73;;;3.63;;
3995;SDS011;2012;49.794;9.722;2023-05-07T11:52:37;3.43;;;3.13;;
3995;SDS011;2012;49.794;9.722;2023-05-07T11:55:06;9.73;;;3.70;;
3995;SDS011;2012;49.794;9.722;2023-05-07T11:57:34;3.53;;;3.30;;
3995;SDS011;2012;49.794;9.722;2023-05-07T12:00:01;4.63;;;3.37;;
3995;SDS011;2012;49.794;9.722;2023-05-07T12:02:39;4.50;;;3.63;;
3995;SDS011;2012;49.794;9.722;2023-05-07T12:05:08;3.60;;;3.30;;
3995;SDS011;2012;49.794;9.722;2023-05-07T12:07:36;5.33;;;3.50;;
3995;SDS011;2012;49.794;9.722;2023-05-07T12:10:04;3.47;;;3.17;;
3995;SDS011;2012;49.794;9.722;2023-05-07T12:12:37;3.07;;;2.80;;
3995;SDS011;2012;49.794;9.722;2023-05-07T12:15:10;2.73;;;2.53;;
3995;SDS011;2012;49.794;9.722;2023-05-07T12:17:37;4.93;;;3.20;;
3995;SDS011;2012;49.794;9.722;2023-05-07T12:20:05;5.30;;;3.67;;
3995;SDS011;2012;49.794;9.722;2023-05-07T12:22:32;3.67;;;3.13;;
3995;SDS011;2012;49.794;9.722;2023-05-07T12:24:59;3.17;;;2.87;;
3995;SDS011;2012;49.794;9.722;2023-05-07T12:27:26;2.70;;;2.43;;
3995;SDS011;2012;49.794;9.722;2023-05-07T12:29:53;2.80;;;2.50;;
3995;SDS011;2012;49.794;9.722;2023-05-07T12:32:20;2.50;;;2.30;;
3995;SDS011;2012;49.794;9.722;2023-05-07T12:34:51;2.80;;;2.60;;
3995;SDS011;2012;49.794;9.722;2023-05-07T12:37:24;2.80;;;2.60;;
3995;SDS011;2012;49.794;9.722;2023-05-07T12:42:36;4.70;;;2.57;;
3995;SDS011;2012;49.794;9.722;2023-05-07T12:45:15;3.73;;;3.00;;
3995;SDS011;2012;49.794;9.722;2023-05-07T12:47:44;3.00;;;2.60;;
3995;SDS011;2012;49.794;9.722;2023-05-07T12:50:12;2.57;;;2.37;;
3995;SDS011;2012;49.794;9.722;2023-05-07T12:52:40;2.57;;;2.37;;
3995;SDS011;2012;49.794;9.722;2023-05-07T12:55:07;4.17;;;2.50;;
3995;SDS011;2012;49.794;9.722;2023-05-07T12:57:42;2.00;;;1.90;;
3995;SDS011;2012;49.794;9.722;2023-05-07T13:00:14;4.93;;;2.20;;
3995;SDS011;2012;49.794;9.722;2023-05-07T13:02:42;5.30;;;2.27;;
3995;SDS011;2012;49.794;9.722;2023-05-07T13:05:12;2.70;;;2.20;;
3995;SDS011;2012;49.794;9.722;2023-05-07T13:07:40;3.33;;;2.67;;
3995;SDS011;2012;49.794;9.722;2023-05-07T13:10:07;2.90;;;2.70;;
3995;SDS011;2012;49.794;9.722;2023-05-07T13:12:34;2.60;;;2.30;;
3995;SDS011;2012;49.794;9.722;2023-05-07T13:15:02;2.97;;;2.77;;
3995;SDS011;2012;49.794;9.722;2023-05-07T13:17:29;2.30;;;1.90;;
3995;SDS011;2012;49.794;9.722;2023-05-07T13:19:57;2.17;;;2.00;;
3995;SDS011;2012;49.794;9.722;2023-05-07T13:22:24;4.57;;;2.60;;
3995;SDS011;2012;49.794;9.722;2023-05-07T13:24:51;3.17;;;2.90;;
3995;SDS011;2012;49.794;9.722;2023-05-07T13:27:18;2.27;;;2.17;;
3995;SDS011;2012;49.794;9.722;2023-05-07T13:29:45;5.50;;;2.50;;
3995;SDS011;2012;49.794;9.722;2023-05-07T13:32:12;1.90;;;1.80;;
3995;SDS011;2012;49.794;9.722;2023-05-07T13:34:39;2.20;;;2.00;;
3995;SDS011;2012;49.794;9.722;2023-05-07T13:37:06;2.60;;;1.87;;
3995;SDS011;2012;49.794;9.722;2023-05-07T13:39:36;3.03;;;1.90;;
3995;SDS011;2012;49.794;9.722;2023-05-07T13:42:03;2.63;;;1.90;;
3995;SDS011;2012;49.794;9.722;2023-05-07T13:44:30;2.17;;;1.97;;
3995;SDS011;2012;49.794;9.722;2023-05-07T13:46:57;3.17;;;2.10;;
3995;SDS011;2012;49.794;9.722;2023-05-07T13:49:24;2.53;;;2.20;;
3995;SDS011;2012;49.794;9.722;2023-05-07T13:51:51;3.20;;;1.90;;
3995;SDS011;2012;49.794;9.722;2023-05-07T13:54:18;1.80;;;1.70;;
3995;SDS011;2012;49.794;9.722;2023-05-07T13:56:45;2.90;;;2.20;;
3995;SDS011;2012;49.794;9.722;2023-05-07T13:59:12;4.27;;;2.00;;
3995;SDS011;2012;49.794;9.722;2023-05-07T14:01:40;2.83;;;2.00;;
3995;SDS011;2012;49.794;9.722;2023-05-07T14:04:07;2.20;;;2.00;;
3995;SDS011;2012;49.794;9.722;2023-05-07T14:06:34;2.20;;;2.00;;
3995;SDS011;2012;49.794;9.722;2023-05-07T14:09:01;2.33;;;1.93;;
3995;SDS011;2012;49.794;9.722;2023-05-07T14:11:28;2.17;;;2.07;;
3995;SDS011;2012;49.794;9.722;2023-05-07T14:13:55;3.60;;;2.07;;
3995;SDS011;2012;49.794;9.722;2023-05-07T14:16:23;2.10;;;1.70;;
3995;SDS011;2012;49.794;9.722;2023-05-07T14:18:50;3.30;;;1.43;;
3995;SDS011;2012;49.794;9.722;2023-05-07T14:21:16;1.70;;;1.60;;
3995;SDS011;2012;49.794;9.722;2023-05-07T14:23:43;1.83;;;1.50;;
3995;SDS011;2012;49.794;9.722;2023-05-07T14:26:10;3.50;;;2.00;;
3995;SDS011;2012;49.794;9.722;2023-05-07T14:28:37;1.70;;;1.60;;
3995;SDS011;2012;49.794;9.722;2023-05-07T14:31:05;1.77;;;1.67;;
3995;SDS011;2012;49.794;9.722;2023-05-07T14:33:32;2.00;;;1.63;;
3995;SDS011;2012;49.794;9.722;2023-05-07T14:36:00;2.50;;;1.80;;
3995;SDS011;2012;49.794;9.722;2023-05-07T14:38:27;4.30;;;2.03;;
3995;SDS011;2012;49.794;9.722;2023-05-07T14:40:53;1.80;;;1.70;;
3995;SDS011;2012;49.794;9.722;2023-05-07T14:43:22;1.53;;;1.43;;
3995;SDS011;2012;49.794;9.722;2023-05-07T14:45:49;2.37;;;1.60;;
3995;SDS011;2012;49.794;9.722;2023-05-07T14:48:16;1.50;;;1.40;;
3995;SDS011;2012;49.794;9.722;2023-05-07T14:50:47;2.27;;;1.73;;
3995;SDS011;2012;49.794;9.722;2023-05-07T14:53:15;8.13;;;1.80;;
3995;SDS011;2012;49.794;9.722;2023-05-07T14:55:42;2.93;;;1.77;;
3995;SDS011;2012;49.794;9.722;2023-05-07T14:58:10;2.13;;;2.03;;
3995;SDS011;2012;49.794;9.722;2023-05-07T15:00:37;2.00;;;1.80;;
3995;SDS011;2012;49.794;9.722;2023-05-07T15:03:07;2.80;;;2.07;;
3995;SDS011;2012;49.794;9.722;2023-05-07T15:05:36;2.13;;;1.93;;
3995;SDS011;2012;49.794;9.722;2023-05-07T15:08:04;2.80;;;2.07;;
3995;SDS011;2012;49.794;9.722;2023-05-07T15:10:34;5.43;;;2.43;;
3995;SDS011;2012;49.794;9.722;2023-05-07T15:13:07;3.50;;;2.07;;
3995;SDS011;2012;49.794;9.722;2023-05-07T15:15:40;2.13;;;1.93;;
3995;SDS011;2012;49.794;9.722;2023-05-07T15:18:08;2.50;;;2.30;;
3995;SDS011;2012;49.794;9.722;2023-05-07T15:20:35;2.93;;;2.50;;
3995;SDS011;2012;49.794;9.722;2023-05-07T15:23:03;3.13;;;2.50;;
3995;SDS011;2012;49.794;9.722;2023-05-07T15:25:32;3.40;;;2.83;;
3995;SDS011;2012;49.794;9.722;2023-05-07T15:28:00;4.07;;;2.83;;
3995;SDS011;2012;49.794;9.722;2023-05-07T15:30:27;5.10;;;2.83;;
3995;SDS011;2012;49.794;9.722;2023-05-07T15:32:54;5.20;;;2.07;;
3995;SDS011;2012;49.794;9.722;2023-05-07T15:35:21;3.60;;;3.10;;
3995;SDS011;2012;49.794;9.722;2023-05-07T15:37:48;2.93;;;2.73;;
3995;SDS011;2012;49.794;9.722;2023-05-07T15:40:16;5.17;;;3.20;;